sensor_id;sensor_type;location;lat;lon;timestamp;P1;durP1;ratioP1;P2;durP2;ratioP2
64297;SDS011;50639;53.270;7.956;2022-08-03T00:01:01;6.30;;;3.70;;
64297;SDS011;50639;53.270;7.956;2022-08-03T00:03:26;4.32;;;3.30;;
64297;SDS011;50639;53.270;7.956;2022-08-03T00:05:52;6.40;;;3.73;;
64297;SDS011;50639;53.270;7.956;2022-08-03T00:08:17;5.72;;;3.45;;
64297;SDS011;50639;53.270;7.956;2022-08-03T00:10:42;4.93;;;3.28;;
64297;SDS011;50639;53.270;7.956;2022-08-03T00:13:07;7.03;;;3.50;;
64297;SDS011;50639;53.270;7.956;2022-08-03T00:15:33;7.30;;;3.67;;
64297;SDS011;50639;53.270;7.956;2022-08-03T00:17:58;5.13;;;3.53;;
64297;SDS011;50639;53.270;7.956;2022-08-03T00:20:23;6.07;;;3.35;;
64297;SDS011;50639;53.270;7.956;2022-08-03T00:22:49;5.70;;;3.17;;
64297;SDS011;50639;53.270;7.956;2022-08-03T00:25:14;6.25;;;3.45;;
64297;SDS011;50639;53.270;7.956;2022-08-03T00:27:40;9.15;;;3.53;;
64297;SDS011;50639;53.270;7.956;2022-08-03T00:30:05;7.05;;;3.50;;
64297;SDS011;50639;53.270;7.956;2022-08-03T00:32:31;5.10;;;3.20;;
64297;SDS011;50639;53.270;7.956;2022-08-03T00:34:56;5.43;;;3.40;;
64297;SDS011;50639;53.270;7.956;2022-08-03T00:37:21;6.40;;;3.42;;
64297;SDS011;50639;53.270;7.956;2022-08-03T00:39:47;6.45;;;3.47;;
64297;SDS011;50639;53.270;7.956;2022-08-03T00:42:12;4.15;;;3.35;;
64297;SDS011;50639;53.270;7.956;2022-08-03T00:44:38;5.70;;;3.42;;
64297;SDS011;50639;53.270;7.956;2022-08-03T00:47:03;4.47;;;3.20;;
64297;SDS011;50639;53.270;7.956;2022-08-03T00:49:29;6.95;;;3.15;;
64297;SDS011;50639;53.270;7.956;2022-08-03T00:51:54;6.82;;;3.30;;
64297;SDS011;50639;53.270;7.956;2022-08-03T00:54:19;6.28;;;3.83;;
64297;SDS011;50639;53.270;7.956;2022-08-03T00:56:45;8.65;;;3.50;;
64297;SDS011;50639;53.270;7.956;2022-08-03T00:59:10;5.30;;;3.15;;
64297;SDS011;50639;53.270;7.956;2022-08-03T01:01:36;5.97;;;3.47;;
64297;SDS011;50639;53.270;7.956;2022-08-03T01:04:01;4.73;;;3.43;;
64297;SDS011;50639;53.270;7.956;2022-08-03T01:06:41;6.53;;;3.50;;
64297;SDS011;50639;53.270;7.956;2022-08-03T01:09:08;5.68;;;3.30;;
64297;SDS011;50639;53.270;7.956;2022-08-03T01:11:37;8.38;;;3.58;;
64297;SDS011;50639;53.270;7.956;2022-08-03T01:14:21;7.25;;;3.33;;
64297;SDS011;50639;53.270;7.956;2022-08-03T01:17:04;9.73;;;3.67;;
64297;SDS011;50639;53.270;7.956;2022-08-03T01:24:43;7.18;;;3.40;;
64297;SDS011;50639;53.270;7.956;2022-08-03T01:27:13;5.55;;;2.97;;
64297;SDS011;50639;53.270;7.956;2022-08-03T01:29:48;5.95;;;3.03;;
64297;SDS011;50639;53.270;7.956;2022-08-03T01:34:54;9.23;;;3.30;;
64297;SDS011;50639;53.270;7.956;2022-08-03T01:37:23;6.50;;;3.20;;
64297;SDS011;50639;53.270;7.956;2022-08-03T01:39:51;8.05;;;3.72;;
64297;SDS011;50639;53.270;7.956;2022-08-03T01:42:17;5.25;;;3.60;;
64297;SDS011;50639;53.270;7.956;2022-08-03T01:44:43;6.10;;;3.92;;
64297;SDS011;50639;53.270;7.956;2022-08-03T01:47:09;5.80;;;3.38;;
64297;SDS011;50639;53.270;7.956;2022-08-03T01:49:38;6.80;;;3.50;;
64297;SDS011;50639;53.270;7.956;2022-08-03T01:52:04;7.22;;;3.88;;
64297;SDS011;50639;53.270;7.956;2022-08-03T01:54:30;5.88;;;3.50;;
64297;SDS011;50639;53.270;7.956;2022-08-03T01:56:56;8.05;;;3.65;;
64297;SDS011;50639;53.270;7.956;2022-08-03T01:59:22;5.97;;;3.25;;
64297;SDS011;50639;53.270;7.956;2022-08-03T02:01:49;4.90;;;3.30;;
64297;SDS011;50639;53.270;7.956;2022-08-03T02:04:16;6.75;;;3.50;;
64297;SDS011;50639;53.270;7.956;2022-08-03T02:06:42;4.07;;;3.20;;
64297;SDS011;50639;53.270;7.956;2022-08-03T02:09:09;4.97;;;3.05;;
64297;SDS011;50639;53.270;7.956;2022-08-03T02:11:35;11.45;;;3.80;;
64297;SDS011;50639;53.270;7.956;2022-08-03T02:14:03;6.40;;;3.22;;
64297;SDS011;50639;53.270;7.956;2022-08-03T02:16:29;4.55;;;3.25;;
64297;SDS011;50639;53.270;7.956;2022-08-03T02:18:55;5.13;;;3.30;;
64297;SDS011;50639;53.270;7.956;2022-08-03T02:21:22;5.47;;;3.00;;
64297;SDS011;50639;53.270;7.956;2022-08-03T02:23:47;5.75;;;3.10;;
64297;SDS011;50639;53.270;7.956;2022-08-03T02:26:13;6.93;;;3.30;;
64297;SDS011;50639;53.270;7.956;2022-08-03T02:28:40;5.25;;;3.25;;
64297;SDS011;50639;53.270;7.956;2022-08-03T02:31:10;5.03;;;3.10;;
64297;SDS011;50639;53.270;7.956;2022-08-03T02:33:37;9.55;;;4.15;;
64297;SDS011;50639;53.270;7.956;2022-08-03T02:36:05;5.60;;;3.40;;
64297;SDS011;50639;53.270;7.956;2022-08-03T02:38:32;6.78;;;3.78;;
64297;SDS011;50639;53.270;7.956;2022-08-03T02:40:58;6.05;;;3.35;;
64297;SDS011;50639;53.270;7.956;2022-08-03T02:43:25;11.20;;;3.60;;
64297;SDS011;50639;53.270;7.956;2022-08-03T02:45:50;5.25;;;3.70;;
64297;SDS011;50639;53.270;7.956;2022-08-03T02:48:17;6.03;;;3.83;;
64297;SDS011;50639;53.270;7.956;2022-08-03T02:50:44;6.38;;;4.43;;
64297;SDS011;50639;53.270;7.956;2022-08-03T02:53:10;11.02;;;3.95;;
64297;SDS011;50639;53.270;7.956;2022-08-03T02:55:36;6.47;;;3.55;;
64297;SDS011;50639;53.270;7.956;2022-08-03T02:58:03;4.78;;;3.50;;
64297;SDS011;50639;53.270;7.956;2022-08-03T03:00:29;4.97;;;3.47;;
64297;SDS011;50639;53.270;7.956;2022-08-03T03:02:56;7.07;;;3.63;;
64297;SDS011;50639;53.270;7.956;2022-08-03T03:05:21;5.90;;;3.63;;
64297;SDS011;50639;53.270;7.956;2022-08-03T03:07:47;7.07;;;3.90;;
64297;SDS011;50639;53.270;7.956;2022-08-03T03:10:13;6.97;;;4.20;;
64297;SDS011;50639;53.270;7.956;2022-08-03T03:12:38;7.53;;;3.70;;
64297;SDS011;50639;53.270;7.956;2022-08-03T03:15:05;6.65;;;3.60;;
64297;SDS011;50639;53.270;7.956;2022-08-03T03:17:30;9.57;;;3.80;;
64297;SDS011;50639;53.270;7.956;2022-08-03T03:19:57;12.32;;;5.68;;
64297;SDS011;50639;53.270;7.956;2022-08-03T03:22:23;6.95;;;4.20;;
64297;SDS011;50639;53.270;7.956;2022-08-03T03:24:48;5.97;;;3.95;;
64297;SDS011;50639;53.270;7.956;2022-08-03T03:27:15;8.70;;;4.30;;
64297;SDS011;50639;53.270;7.956;2022-08-03T03:29:41;6.55;;;4.18;;
64297;SDS011;50639;53.270;7.956;2022-08-03T03:32:07;9.50;;;5.05;;
64297;SDS011;50639;53.270;7.956;2022-08-03T03:34:32;11.43;;;4.53;;
64297;SDS011;50639;53.270;7.956;2022-08-03T03:36:58;7.25;;;4.53;;
64297;SDS011;50639;53.270;7.956;2022-08-03T03:39:23;9.07;;;3.95;;
64297;SDS011;50639;53.270;7.956;2022-08-03T03:41:50;7.35;;;4.47;;
64297;SDS011;50639;53.270;7.956;2022-08-03T03:44:15;6.55;;;4.53;;
64297;SDS011;50639;53.270;7.956;2022-08-03T03:46:41;8.25;;;4.50;;
64297;SDS011;50639;53.270;7.956;2022-08-03T03:49:06;9.27;;;4.88;;
64297;SDS011;50639;53.270;7.956;2022-08-03T03:51:31;11.13;;;4.35;;
64297;SDS011;50639;53.270;7.956;2022-08-03T03:54:01;10.27;;;5.05;;
64297;SDS011;50639;53.270;7.956;2022-08-03T03:56:27;12.70;;;5.15;;
64297;SDS011;50639;53.270;7.956;2022-08-03T03:58:53;7.18;;;4.57;;
64297;SDS011;50639;53.270;7.956;2022-08-03T04:01:19;10.73;;;5.18;;
64297;SDS011;50639;53.270;7.956;2022-08-03T04:03:44;10.05;;;4.93;;
64297;SDS011;50639;53.270;7.956;2022-08-03T04:06:10;8.02;;;4.78;;
64297;SDS011;50639;53.270;7.956;2022-08-03T04:08:54;7.15;;;4.82;;
64297;SDS011;50639;53.270;7.956;2022-08-03T04:11:40;10.40;;;5.07;;
64297;SDS011;50639;53.270;7.956;2022-08-03T04:14:18;6.40;;;4.70;;
64297;SDS011;50639;53.270;7.956;2022-08-03T04:16:45;10.65;;;4.60;;
64297;SDS011;50639;53.270;7.956;2022-08-03T04:19:13;12.90;;;5.00;;
64297;SDS011;50639;53.270;7.956;2022-08-03T04:21:39;67.47;;;47.47;;
64297;SDS011;50639;53.270;7.956;2022-08-03T04:24:05;32.83;;;26.67;;
64297;SDS011;50639;53.270;7.956;2022-08-03T04:26:33;15.43;;;10.10;;
64297;SDS011;50639;53.270;7.956;2022-08-03T04:29:00;11.02;;;5.05;;
64297;SDS011;50639;53.270;7.956;2022-08-03T04:31:26;11.75;;;5.55;;
64297;SDS011;50639;53.270;7.956;2022-08-03T04:33:52;9.68;;;4.40;;
64297;SDS011;50639;53.270;7.956;2022-08-03T04:36:21;6.88;;;3.88;;
64297;SDS011;50639;53.270;7.956;2022-08-03T04:39:02;9.15;;;4.03;;
64297;SDS011;50639;53.270;7.956;2022-08-03T04:41:27;8.73;;;4.30;;
64297;SDS011;50639;53.270;7.956;2022-08-03T04:43:55;14.40;;;4.43;;
64297;SDS011;50639;53.270;7.956;2022-08-03T04:46:21;8.07;;;4.20;;
64297;SDS011;50639;53.270;7.956;2022-08-03T04:48:47;9.45;;;5.47;;
64297;SDS011;50639;53.270;7.956;2022-08-03T04:51:13;6.57;;;4.13;;
64297;SDS011;50639;53.270;7.956;2022-08-03T04:53:38;10.02;;;4.28;;
64297;SDS011;50639;53.270;7.956;2022-08-03T04:56:04;9.48;;;4.43;;
64297;SDS011;50639;53.270;7.956;2022-08-03T04:58:29;7.85;;;4.38;;
64297;SDS011;50639;53.270;7.956;2022-08-03T05:00:55;8.80;;;4.10;;
64297;SDS011;50639;53.270;7.956;2022-08-03T05:03:20;6.90;;;4.47;;
64297;SDS011;50639;53.270;7.956;2022-08-03T05:05:45;8.63;;;4.03;;
64297;SDS011;50639;53.270;7.956;2022-08-03T05:08:10;8.20;;;4.35;;
64297;SDS011;50639;53.270;7.956;2022-08-03T05:10:36;9.55;;;5.80;;
64297;SDS011;50639;53.270;7.956;2022-08-03T05:13:01;9.37;;;5.47;;
64297;SDS011;50639;53.270;7.956;2022-08-03T05:15:26;11.23;;;4.85;;
64297;SDS011;50639;53.270;7.956;2022-08-03T05:17:52;7.53;;;4.30;;
64297;SDS011;50639;53.270;7.956;2022-08-03T05:20:17;8.97;;;4.80;;
64297;SDS011;50639;53.270;7.956;2022-08-03T05:22:42;10.25;;;4.45;;
64297;SDS011;50639;53.270;7.956;2022-08-03T05:25:08;13.73;;;4.60;;
64297;SDS011;50639;53.270;7.956;2022-08-03T05:27:33;7.35;;;4.03;;
64297;SDS011;50639;53.270;7.956;2022-08-03T05:29:59;10.52;;;4.38;;
64297;SDS011;50639;53.270;7.956;2022-08-03T05:32:24;16.77;;;5.18;;
64297;SDS011;50639;53.270;7.956;2022-08-03T05:34:49;10.60;;;4.37;;
64297;SDS011;50639;53.270;7.956;2022-08-03T05:37:15;8.90;;;4.32;;
64297;SDS011;50639;53.270;7.956;2022-08-03T05:39:40;8.80;;;4.47;;
64297;SDS011;50639;53.270;7.956;2022-08-03T05:42:05;8.77;;;4.18;;
64297;SDS011;50639;53.270;7.956;2022-08-03T05:44:31;8.32;;;4.15;;
64297;SDS011;50639;53.270;7.956;2022-08-03T05:46:56;24.42;;;16.52;;
64297;SDS011;50639;53.270;7.956;2022-08-03T05:49:22;11.25;;;4.22;;
64297;SDS011;50639;53.270;7.956;2022-08-03T05:51:47;14.03;;;4.60;;
64297;SDS011;50639;53.270;7.956;2022-08-03T05:54:12;10.00;;;3.77;;
64297;SDS011;50639;53.270;7.956;2022-08-03T05:56:38;14.57;;;4.37;;
64297;SDS011;50639;53.270;7.956;2022-08-03T05:59:06;13.05;;;4.20;;
64297;SDS011;50639;53.270;7.956;2022-08-03T06:01:31;10.73;;;4.63;;
64297;SDS011;50639;53.270;7.956;2022-08-03T06:03:57;9.35;;;4.22;;
64297;SDS011;50639;53.270;7.956;2022-08-03T06:06:22;13.00;;;3.95;;
64297;SDS011;50639;53.270;7.956;2022-08-03T06:08:48;10.00;;;4.05;;
64297;SDS011;50639;53.270;7.956;2022-08-03T06:11:13;15.15;;;4.28;;
64297;SDS011;50639;53.270;7.956;2022-08-03T06:13:39;11.02;;;4.22;;
64297;SDS011;50639;53.270;7.956;2022-08-03T06:16:04;17.02;;;4.20;;
64297;SDS011;50639;53.270;7.956;2022-08-03T06:18:30;18.33;;;4.55;;
64297;SDS011;50639;53.270;7.956;2022-08-03T06:20:55;14.83;;;4.40;;
64297;SDS011;50639;53.270;7.956;2022-08-03T06:23:20;11.43;;;4.28;;
64297;SDS011;50639;53.270;7.956;2022-08-03T06:25:46;11.23;;;3.58;;
64297;SDS011;50639;53.270;7.956;2022-08-03T06:28:11;12.77;;;4.22;;
64297;SDS011;50639;53.270;7.956;2022-08-03T06:30:38;8.98;;;3.45;;
64297;SDS011;50639;53.270;7.956;2022-08-03T06:33:03;15.52;;;4.28;;
64297;SDS011;50639;53.270;7.956;2022-08-03T06:35:29;13.88;;;3.75;;
64297;SDS011;50639;53.270;7.956;2022-08-03T06:37:54;17.20;;;4.05;;
64297;SDS011;50639;53.270;7.956;2022-08-03T06:40:20;10.33;;;3.70;;
64297;SDS011;50639;53.270;7.956;2022-08-03T06:42:57;12.73;;;3.65;;
64297;SDS011;50639;53.270;7.956;2022-08-03T06:45:23;10.93;;;3.83;;
64297;SDS011;50639;53.270;7.956;2022-08-03T06:47:58;15.90;;;4.38;;
64297;SDS011;50639;53.270;7.956;2022-08-03T06:50:23;15.20;;;3.58;;
64297;SDS011;50639;53.270;7.956;2022-08-03T06:52:49;18.33;;;3.60;;
64297;SDS011;50639;53.270;7.956;2022-08-03T06:55:14;14.90;;;3.83;;
64297;SDS011;50639;53.270;7.956;2022-08-03T06:57:39;12.90;;;3.73;;
64297;SDS011;50639;53.270;7.956;2022-08-03T07:00:05;17.47;;;4.13;;
64297;SDS011;50639;53.270;7.956;2022-08-03T07:02:30;10.30;;;3.72;;
64297;SDS011;50639;53.270;7.956;2022-08-03T07:04:56;14.87;;;3.60;;
64297;SDS011;50639;53.270;7.956;2022-08-03T07:07:21;11.93;;;3.50;;
64297;SDS011;50639;53.270;7.956;2022-08-03T07:09:46;12.23;;;3.67;;
64297;SDS011;50639;53.270;7.956;2022-08-03T07:12:12;17.02;;;3.80;;
64297;SDS011;50639;53.270;7.956;2022-08-03T07:14:37;18.53;;;3.77;;
64297;SDS011;50639;53.270;7.956;2022-08-03T07:17:02;11.10;;;3.23;;
64297;SDS011;50639;53.270;7.956;2022-08-03T07:19:28;13.00;;;3.80;;
64297;SDS011;50639;53.270;7.956;2022-08-03T07:21:53;13.17;;;3.23;;
64297;SDS011;50639;53.270;7.956;2022-08-03T07:24:18;16.98;;;4.30;;
64297;SDS011;50639;53.270;7.956;2022-08-03T07:26:43;14.67;;;3.67;;
64297;SDS011;50639;53.270;7.956;2022-08-03T07:29:09;13.60;;;3.77;;
64297;SDS011;50639;53.270;7.956;2022-08-03T07:31:34;12.87;;;3.60;;
64297;SDS011;50639;53.270;7.956;2022-08-03T07:33:59;15.80;;;3.70;;
64297;SDS011;50639;53.270;7.956;2022-08-03T07:36:25;18.42;;;4.43;;
64297;SDS011;50639;53.270;7.956;2022-08-03T07:38:51;12.20;;;3.33;;
64297;SDS011;50639;53.270;7.956;2022-08-03T07:41:16;13.10;;;3.67;;
64297;SDS011;50639;53.270;7.956;2022-08-03T07:43:41;14.52;;;3.70;;
64297;SDS011;50639;53.270;7.956;2022-08-03T07:46:07;15.68;;;3.60;;
64297;SDS011;50639;53.270;7.956;2022-08-03T07:48:32;15.10;;;4.27;;
64297;SDS011;50639;53.270;7.956;2022-08-03T07:50:57;15.30;;;4.10;;
64297;SDS011;50639;53.270;7.956;2022-08-03T07:53:22;16.00;;;4.03;;
64297;SDS011;50639;53.270;7.956;2022-08-03T07:55:48;13.57;;;4.13;;
64297;SDS011;50639;53.270;7.956;2022-08-03T07:58:13;15.83;;;3.70;;
64297;SDS011;50639;53.270;7.956;2022-08-03T08:00:42;19.83;;;4.30;;
64297;SDS011;50639;53.270;7.956;2022-08-03T08:03:08;16.15;;;4.85;;
64297;SDS011;50639;53.270;7.956;2022-08-03T08:05:34;20.83;;;4.15;;
64297;SDS011;50639;53.270;7.956;2022-08-03T08:08:00;17.97;;;4.27;;
64297;SDS011;50639;53.270;7.956;2022-08-03T08:10:25;12.68;;;3.85;;
64297;SDS011;50639;53.270;7.956;2022-08-03T08:12:51;15.25;;;3.90;;
64297;SDS011;50639;53.270;7.956;2022-08-03T08:15:16;16.60;;;3.95;;
64297;SDS011;50639;53.270;7.956;2022-08-03T08:17:48;13.85;;;3.85;;
64297;SDS011;50639;53.270;7.956;2022-08-03T08:20:15;13.52;;;4.57;;
64297;SDS011;50639;53.270;7.956;2022-08-03T08:22:40;18.50;;;4.05;;
64297;SDS011;50639;53.270;7.956;2022-08-03T08:25:06;26.20;;;4.18;;
64297;SDS011;50639;53.270;7.956;2022-08-03T08:27:31;16.23;;;4.22;;
64297;SDS011;50639;53.270;7.956;2022-08-03T08:29:57;14.63;;;3.87;;
64297;SDS011;50639;53.270;7.956;2022-08-03T08:32:22;16.98;;;4.22;;
64297;SDS011;50639;53.270;7.956;2022-08-03T08:34:47;15.87;;;3.47;;
64297;SDS011;50639;53.270;7.956;2022-08-03T08:37:13;16.57;;;3.90;;
64297;SDS011;50639;53.270;7.956;2022-08-03T08:39:38;14.27;;;3.75;;
64297;SDS011;50639;53.270;7.956;2022-08-03T08:42:03;12.52;;;3.20;;
64297;SDS011;50639;53.270;7.956;2022-08-03T08:44:29;16.00;;;3.55;;
64297;SDS011;50639;53.270;7.956;2022-08-03T08:46:54;13.20;;;3.88;;
64297;SDS011;50639;53.270;7.956;2022-08-03T08:49:21;16.40;;;3.67;;
64297;SDS011;50639;53.270;7.956;2022-08-03T08:51:47;17.53;;;3.87;;
64297;SDS011;50639;53.270;7.956;2022-08-03T08:54:13;16.27;;;4.13;;
64297;SDS011;50639;53.270;7.956;2022-08-03T08:56:39;13.32;;;3.70;;
64297;SDS011;50639;53.270;7.956;2022-08-03T08:59:04;16.25;;;3.40;;
64297;SDS011;50639;53.270;7.956;2022-08-03T09:01:30;16.73;;;3.80;;
64297;SDS011;50639;53.270;7.956;2022-08-03T09:03:55;16.00;;;4.33;;
64297;SDS011;50639;53.270;7.956;2022-08-03T09:06:21;19.07;;;4.00;;
64297;SDS011;50639;53.270;7.956;2022-08-03T09:08:47;16.88;;;4.05;;
64297;SDS011;50639;53.270;7.956;2022-08-03T09:11:12;14.20;;;3.40;;
64297;SDS011;50639;53.270;7.956;2022-08-03T09:13:37;11.70;;;3.53;;
64297;SDS011;50639;53.270;7.956;2022-08-03T09:16:13;15.27;;;3.88;;
64297;SDS011;50639;53.270;7.956;2022-08-03T09:18:39;12.68;;;3.50;;
64297;SDS011;50639;53.270;7.956;2022-08-03T09:21:18;16.63;;;3.72;;
64297;SDS011;50639;53.270;7.956;2022-08-03T09:23:53;18.33;;;3.95;;
64297;SDS011;50639;53.270;7.956;2022-08-03T09:26:19;16.55;;;3.80;;
64297;SDS011;50639;53.270;7.956;2022-08-03T09:28:45;14.68;;;3.45;;
64297;SDS011;50639;53.270;7.956;2022-08-03T09:31:10;19.40;;;4.23;;
64297;SDS011;50639;53.270;7.956;2022-08-03T09:33:45;13.63;;;3.53;;
64297;SDS011;50639;53.270;7.956;2022-08-03T09:36:10;15.32;;;3.67;;
64297;SDS011;50639;53.270;7.956;2022-08-03T09:39:02;16.33;;;3.78;;
64297;SDS011;50639;53.270;7.956;2022-08-03T09:41:30;19.25;;;3.88;;
64297;SDS011;50639;53.270;7.956;2022-08-03T09:43:55;15.03;;;4.20;;
64297;SDS011;50639;53.270;7.956;2022-08-03T09:46:21;16.55;;;4.00;;
64297;SDS011;50639;53.270;7.956;2022-08-03T09:48:46;18.00;;;4.07;;
64297;SDS011;50639;53.270;7.956;2022-08-03T09:51:12;19.97;;;3.90;;
64297;SDS011;50639;53.270;7.956;2022-08-03T09:53:42;19.52;;;4.45;;
64297;SDS011;50639;53.270;7.956;2022-08-03T09:56:08;18.38;;;4.30;;
64297;SDS011;50639;53.270;7.956;2022-08-03T09:58:33;21.87;;;4.33;;
64297;SDS011;50639;53.270;7.956;2022-08-03T10:01:08;10.32;;;3.25;;
64297;SDS011;50639;53.270;7.956;2022-08-03T10:03:36;17.30;;;3.53;;
64297;SDS011;50639;53.270;7.956;2022-08-03T10:06:14;15.57;;;3.70;;
64297;SDS011;50639;53.270;7.956;2022-08-03T10:08:40;15.35;;;3.55;;
64297;SDS011;50639;53.270;7.956;2022-08-03T10:11:05;20.33;;;4.10;;
64297;SDS011;50639;53.270;7.956;2022-08-03T10:13:31;16.07;;;3.63;;
64297;SDS011;50639;53.270;7.956;2022-08-03T10:15:56;21.48;;;4.63;;
64297;SDS011;50639;53.270;7.956;2022-08-03T10:18:22;17.23;;;4.07;;
64297;SDS011;50639;53.270;7.956;2022-08-03T10:20:51;20.03;;;4.37;;
64297;SDS011;50639;53.270;7.956;2022-08-03T10:23:18;14.55;;;4.43;;
64297;SDS011;50639;53.270;7.956;2022-08-03T10:25:46;18.25;;;4.22;;
64297;SDS011;50639;53.270;7.956;2022-08-03T10:28:14;14.63;;;3.92;;
64297;SDS011;50639;53.270;7.956;2022-08-03T10:30:41;19.08;;;4.68;;
64297;SDS011;50639;53.270;7.956;2022-08-03T10:33:16;19.13;;;4.13;;
64297;SDS011;50639;53.270;7.956;2022-08-03T10:35:41;17.33;;;4.15;;
64297;SDS011;50639;53.270;7.956;2022-08-03T10:38:18;18.00;;;4.27;;
64297;SDS011;50639;53.270;7.956;2022-08-03T10:40:43;19.48;;;4.57;;
64297;SDS011;50639;53.270;7.956;2022-08-03T10:43:10;16.63;;;3.72;;
64297;SDS011;50639;53.270;7.956;2022-08-03T10:45:39;22.33;;;4.35;;
64297;SDS011;50639;53.270;7.956;2022-08-03T10:48:05;16.98;;;3.65;;
64297;SDS011;50639;53.270;7.956;2022-08-03T10:50:31;19.45;;;4.40;;
64297;SDS011;50639;53.270;7.956;2022-08-03T10:52:58;18.92;;;4.80;;
64297;SDS011;50639;53.270;7.956;2022-08-03T10:55:44;17.38;;;4.18;;
64297;SDS011;50639;53.270;7.956;2022-08-03T11:01:11;17.40;;;4.63;;
64297;SDS011;50639;53.270;7.956;2022-08-03T11:06:21;21.60;;;4.22;;
64297;SDS011;50639;53.270;7.956;2022-08-03T11:08:49;21.05;;;4.70;;
64297;SDS011;50639;53.270;7.956;2022-08-03T11:16:32;18.25;;;3.90;;
64297;SDS011;50639;53.270;7.956;2022-08-03T11:19:02;23.70;;;4.28;;
64297;SDS011;50639;53.270;7.956;2022-08-03T11:24:41;20.73;;;4.60;;
64297;SDS011;50639;53.270;7.956;2022-08-03T11:35:14;22.58;;;4.30;;
64297;SDS011;50639;53.270;7.956;2022-08-03T11:43:05;23.42;;;4.25;;
64297;SDS011;50639;53.270;7.956;2022-08-03T11:45:31;18.77;;;4.20;;
64297;SDS011;50639;53.270;7.956;2022-08-03T11:47:56;18.40;;;4.83;;
64297;SDS011;50639;53.270;7.956;2022-08-03T11:50:24;21.83;;;4.28;;
64297;SDS011;50639;53.270;7.956;2022-08-03T11:52:50;17.80;;;4.47;;
64297;SDS011;50639;53.270;7.956;2022-08-03T11:55:18;23.98;;;4.60;;
64297;SDS011;50639;53.270;7.956;2022-08-03T11:57:46;25.98;;;4.40;;
64297;SDS011;50639;53.270;7.956;2022-08-03T12:02:55;19.15;;;4.28;;
64297;SDS011;50639;53.270;7.956;2022-08-03T12:05:31;20.55;;;4.45;;
64297;SDS011;50639;53.270;7.956;2022-08-03T12:07:56;22.67;;;4.68;;
64297;SDS011;50639;53.270;7.956;2022-08-03T12:10:21;24.37;;;4.97;;
64297;SDS011;50639;53.270;7.956;2022-08-03T12:12:53;28.15;;;4.32;;
64297;SDS011;50639;53.270;7.956;2022-08-03T12:15:23;20.25;;;4.10;;
64297;SDS011;50639;53.270;7.956;2022-08-03T12:17:49;22.85;;;4.85;;
64297;SDS011;50639;53.270;7.956;2022-08-03T12:20:19;19.87;;;4.83;;
64297;SDS011;50639;53.270;7.956;2022-08-03T12:22:45;19.63;;;4.43;;
64297;SDS011;50639;53.270;7.956;2022-08-03T12:25:14;21.13;;;4.88;;
64297;SDS011;50639;53.270;7.956;2022-08-03T12:27:44;32.20;;;5.13;;
64297;SDS011;50639;53.270;7.956;2022-08-03T12:30:09;28.10;;;5.13;;
64297;SDS011;50639;53.270;7.956;2022-08-03T12:32:35;17.60;;;4.53;;
64297;SDS011;50639;53.270;7.956;2022-08-03T12:35:00;17.83;;;4.43;;
64297;SDS011;50639;53.270;7.956;2022-08-03T12:37:29;23.65;;;5.13;;
64297;SDS011;50639;53.270;7.956;2022-08-03T12:39:56;22.15;;;4.63;;
64297;SDS011;50639;53.270;7.956;2022-08-03T12:42:30;18.40;;;4.68;;
64297;SDS011;50639;53.270;7.956;2022-08-03T12:44:55;24.20;;;4.97;;
64297;SDS011;50639;53.270;7.956;2022-08-03T12:47:20;20.40;;;4.67;;
64297;SDS011;50639;53.270;7.956;2022-08-03T12:49:46;21.40;;;4.57;;
64297;SDS011;50639;53.270;7.956;2022-08-03T12:52:12;20.83;;;4.65;;
64297;SDS011;50639;53.270;7.956;2022-08-03T12:54:37;20.90;;;4.63;;
64297;SDS011;50639;53.270;7.956;2022-08-03T12:57:06;31.42;;;5.10;;
64297;SDS011;50639;53.270;7.956;2022-08-03T12:59:33;19.27;;;4.53;;
64297;SDS011;50639;53.270;7.956;2022-08-03T13:01:58;20.08;;;4.50;;
64297;SDS011;50639;53.270;7.956;2022-08-03T13:04:24;20.33;;;4.97;;
64297;SDS011;50639;53.270;7.956;2022-08-03T13:06:57;21.27;;;3.92;;
64297;SDS011;50639;53.270;7.956;2022-08-03T13:09:23;19.60;;;4.05;;
64297;SDS011;50639;53.270;7.956;2022-08-03T13:12:06;21.20;;;4.32;;
64297;SDS011;50639;53.270;7.956;2022-08-03T13:14:32;17.25;;;4.00;;
64297;SDS011;50639;53.270;7.956;2022-08-03T13:16:57;22.65;;;3.80;;
64297;SDS011;50639;53.270;7.956;2022-08-03T13:19:22;29.08;;;4.82;;
64297;SDS011;50639;53.270;7.956;2022-08-03T13:21:48;20.63;;;4.30;;
64297;SDS011;50639;53.270;7.956;2022-08-03T13:24:14;20.33;;;3.72;;
64297;SDS011;50639;53.270;7.956;2022-08-03T13:26:39;22.58;;;3.80;;
64297;SDS011;50639;53.270;7.956;2022-08-03T13:29:04;20.23;;;4.03;;
64297;SDS011;50639;53.270;7.956;2022-08-03T13:31:30;18.52;;;4.13;;
64297;SDS011;50639;53.270;7.956;2022-08-03T13:33:55;26.63;;;4.82;;
64297;SDS011;50639;53.270;7.956;2022-08-03T13:36:21;18.80;;;4.38;;
64297;SDS011;50639;53.270;7.956;2022-08-03T13:38:46;19.48;;;4.22;;
64297;SDS011;50639;53.270;7.956;2022-08-03T13:41:11;16.70;;;3.63;;
64297;SDS011;50639;53.270;7.956;2022-08-03T13:43:36;20.27;;;4.50;;
64297;SDS011;50639;53.270;7.956;2022-08-03T13:46:02;17.93;;;4.33;;
64297;SDS011;50639;53.270;7.956;2022-08-03T13:48:27;18.60;;;4.37;;
64297;SDS011;50639;53.270;7.956;2022-08-03T13:50:52;19.60;;;4.68;;
64297;SDS011;50639;53.270;7.956;2022-08-03T13:53:17;14.23;;;3.80;;
64297;SDS011;50639;53.270;7.956;2022-08-03T13:55:43;25.33;;;4.95;;
64297;SDS011;50639;53.270;7.956;2022-08-03T13:58:08;22.20;;;4.45;;
64297;SDS011;50639;53.270;7.956;2022-08-03T14:00:36;18.08;;;3.92;;
64297;SDS011;50639;53.270;7.956;2022-08-03T14:03:02;21.08;;;4.80;;
64297;SDS011;50639;53.270;7.956;2022-08-03T14:05:30;18.77;;;4.07;;
64297;SDS011;50639;53.270;7.956;2022-08-03T14:07:56;20.58;;;3.78;;
64297;SDS011;50639;53.270;7.956;2022-08-03T14:10:21;17.38;;;3.95;;
64297;SDS011;50639;53.270;7.956;2022-08-03T14:12:46;16.23;;;4.03;;
64297;SDS011;50639;53.270;7.956;2022-08-03T14:15:12;15.03;;;3.80;;
64297;SDS011;50639;53.270;7.956;2022-08-03T14:17:37;13.50;;;3.73;;
64297;SDS011;50639;53.270;7.956;2022-08-03T14:20:03;17.50;;;4.30;;
64297;SDS011;50639;53.270;7.956;2022-08-03T14:22:32;15.88;;;3.80;;
64297;SDS011;50639;53.270;7.956;2022-08-03T14:24:57;16.92;;;4.60;;
64297;SDS011;50639;53.270;7.956;2022-08-03T14:27:22;31.93;;;20.00;;
64297;SDS011;50639;53.270;7.956;2022-08-03T14:29:48;15.57;;;3.90;;
64297;SDS011;50639;53.270;7.956;2022-08-03T14:32:13;19.37;;;4.20;;
64297;SDS011;50639;53.270;7.956;2022-08-03T14:34:38;19.07;;;3.90;;
64297;SDS011;50639;53.270;7.956;2022-08-03T14:37:04;13.03;;;3.57;;
64297;SDS011;50639;53.270;7.956;2022-08-03T14:39:29;15.10;;;4.40;;
64297;SDS011;50639;53.270;7.956;2022-08-03T14:41:54;19.73;;;4.00;;
64297;SDS011;50639;53.270;7.956;2022-08-03T14:44:19;21.03;;;3.83;;
64297;SDS011;50639;53.270;7.956;2022-08-03T14:46:45;14.87;;;3.70;;
64297;SDS011;50639;53.270;7.956;2022-08-03T14:49:10;20.50;;;4.17;;
64297;SDS011;50639;53.270;7.956;2022-08-03T14:51:35;20.57;;;3.83;;
64297;SDS011;50639;53.270;7.956;2022-08-03T14:54:00;15.83;;;3.77;;
64297;SDS011;50639;53.270;7.956;2022-08-03T14:56:26;12.97;;;3.83;;
64297;SDS011;50639;53.270;7.956;2022-08-03T14:58:51;17.60;;;4.00;;
64297;SDS011;50639;53.270;7.956;2022-08-03T15:01:16;14.03;;;3.40;;
64297;SDS011;50639;53.270;7.956;2022-08-03T15:03:42;15.80;;;3.97;;
64297;SDS011;50639;53.270;7.956;2022-08-03T15:06:08;15.93;;;3.67;;
64297;SDS011;50639;53.270;7.956;2022-08-03T15:08:33;14.67;;;3.93;;
64297;SDS011;50639;53.270;7.956;2022-08-03T15:10:58;13.27;;;3.43;;
64297;SDS011;50639;53.270;7.956;2022-08-03T15:13:24;12.53;;;3.73;;